Moran, TX

4:25 PM CST on February 08, 2016 (GMT -0600)
Putnam | | Change Station
CLOSE
Current Station
Personal Weather Station
Location: Cisco, TX
Elevation: 1611 ft
Nearby Weather Stations
Active Advisory: Fire Weather Warning

Elev 1611 ft 32.44 °N, 99.17 °W | Updated 12 seconds ago

Clear
Clear
57.9 °F
Feels Like 57.9 °F
N
4.3
Wind Variable Wind from NW
Gusts 14.0 mph

Today
High -- | Low -- °F
--% Chance of Precip.
Yesterday
High -- | Low -- °F
Precip. -- in
Pressure 30.32 in
Visibility 10.0 miles
Clouds Clear
Dew Point 13 °F
Humidity 17%
Rainfall 0.00 in
Snow Depth Not available.
7:26 AM 6:16 PM
New Moon, 0% visible
METAR KBKD 082215Z AUTO 33019G28KT 10SM CLR 15/M13 A3032 RMK AO2 T01491135
Pressure 30.32 in
Visibility 10.0 miles
Clouds Clear
Dew Point 13 °F
Humidity 17%
Rainfall 0.00 in
Snow Depth Not available.
7:26 AM 6:16 PM
New Moon, 0% visible
METAR KBKD 082215Z AUTO 33019G28KT 10SM CLR 15/M13 A3032 RMK AO2 T01491135

10-Day Weather Forecast

Almanac

Astronomy

Feb. 08, 2016 Rise Set
Actual Time
Civil Twilight
Nautical Twilight
Astronomical Twilight
Moon
Length of Visible Light
Length of Day
Tomorrow will be .
, % of the Moon is Illuminated

Today's Extremes

State Highs State Lows

Community

WunderPhotos

Upload Photos

1,891,518 photos uploaded!

WunderBlog® & News

Nearby

Air Quality

  Air Quality AQ Index Pollutant
Not available.

Snow Depth

Station Depth Elevation

Earthquake Activity

City Distance Mag. Time & Date
Minimum magnitude displayed is 2.5.

Coastal Water Temperatures

Place Temperature

Stations

Nearby Weather Stations

Station Location Temp. Windchill Dew Point Humidity Wind Precip. Elev Updated Type
                   

Watches & Warnings

Fire Weather Warning
Issued: 4:14 PM CST Feb. 8, 2016 – National Weather Service

... Red flag warning remains in effect until 6 PM CST this evening
for strong winds and low relative humidities...

* affected area... Haskell... Throckmorton... Shackelford...
Callahan... Brown... and Saba Saba counties.

* Wind... north-northwest near 20 mph... with gusts up to 30 mph.

* Humidity... 15 to 20 percent.

* Impacts... any fires that start will likely spread rapidly.
Outdoor burning is not recommended.

Precautionary/preparedness actions...

A red flag warning means that critical fire weather conditions
are either occurring now... or will shortly. A combination of
strong winds... low relative humidity... and warm temperatures can
contribute to extreme fire behavior.



Johnson